Fulton, KY (42041)

12:15 AM CDT on October 02, 2014 (GMT -0500)
Brooks Chapel | Change Station
CLOSE
Current Station
Personal Weather Station
Location: Fulton, KY
Elevation: 371 ft
Nearby Weather Stations

Elev 371 ft 36.51 °N, 88.97 °W | Updated 10 minutes ago

Partly Cloudy
Partly Cloudy
68.5 °F
Feels Like 68.5 °F
N
0.0
Wind Variable Wind from SSW

Today
High -- | Low -- °F
--% Chance of Precip.
Yesterday
High -- | Low -- °F
Precip. -- in
6:51 AM 6:37 PM
First Quarter, 55% visible
Pressure 29.91 in
Visibility 10.0 miles
Clouds Few 7500 ft
Dew Point 63 °F
Humidity 83%
Rainfall 0.00 in
Snow Depth Not available.
UV 0 out of 12
Pollen 5.50 out of 12
Air Quality Not available.
Flu Activity Not available.
METAR KUCY 020455Z AUTO 14003KT 10SM FEW075 20/17 A2991 RMK

More Conditions Fewer Conditions

Pressure 29.91 in
Visibility 10.0 miles
Clouds Few 7500 ft
Dew Point 63 °F
Humidity 83%
Rainfall 0.00 in
Snow Depth Not available.
UV 0 out of 12
Pollen 5.50 out of 12
Air Quality Not available.
Flu Activity Not available.
METAR KUCY 020455Z AUTO 14003KT 10SM FEW075 20/17 A2991 RMK

More Conditions Fewer Conditions

10-Day Weather Forecast

Almanac

Astronomy

Oct. 02, 2014 Rise Set
Actual Time 6:51 AM CDT 6:37 PM CDT
Civil Twilight 6:26 AM CDT 7:03 PM CDT
Nautical Twilight 5:56 AM CDT 7:33 PM CDT
Astronomical Twilight 5:26 AM CDT 8:03 PM CDT
Moon 2:35 PM CDT 12:17 AM CDT
Length of Visible Light 12h 37m
Length of Day
11h 45m
Tomorrow will be 2m 18s shorter.
First Quarter, 55% of the Moon is Illuminated
Today
First Quarter
Oct 8
Full
Oct 15
Last Quarter
Oct 23
New
Oct 30
First Quarter

Today's Extremes

State Highs State Lows

Community

WunderPhotos

Upload Photos

1,758,195 photos uploaded!

Nearby

Snow Depth

Station Depth Elevation
No new snow has been reported.

Earthquake Activity

City Distance Mag. Time & Date
No recent earthquake activity has been reported nearby.
Minimum magnitude displayed is 2.5.

Coastal Water Temperatures

Place Temperature
No Stations Reporting

Nearby Weather Stations